createdAt,value
2022-07-31T00:00:50.115Z,986.743
2022-07-31T00:02:50.162Z,986.738
2022-07-31T00:04:50.497Z,986.756
2022-07-31T00:06:50.728Z,986.756
2022-07-31T00:08:50.687Z,986.793
2022-07-31T00:10:50.515Z,986.783
2022-07-31T00:12:50.377Z,986.773
2022-07-31T00:14:50.450Z,986.787
2022-07-31T00:16:50.747Z,986.787
2022-07-31T00:18:50.761Z,986.760
2022-07-31T00:20:49.808Z,986.736
2022-07-31T00:22:49.877Z,986.721
2022-07-31T00:24:50.093Z,986.721
2022-07-31T00:26:53.228Z,986.638
2022-07-31T00:28:50.051Z,986.642
2022-07-31T00:30:50.114Z,986.630
2022-07-31T00:32:52.294Z,986.606
2022-07-31T00:34:50.657Z,986.606
2022-07-31T00:36:49.844Z,986.636
2022-07-31T00:38:50.869Z,986.634
2022-07-31T00:40:49.992Z,986.643
2022-07-31T00:42:49.998Z,986.634
2022-07-31T00:44:49.933Z,986.622
2022-07-31T00:46:50.043Z,986.641
2022-07-31T00:48:50.172Z,986.625
2022-07-31T00:50:50.362Z,986.651
2022-07-31T00:52:50.343Z,986.640
2022-07-31T00:54:50.311Z,986.628
2022-07-31T00:56:50.660Z,986.674
2022-07-31T00:58:50.563Z,986.629
2022-07-31T01:00:50.760Z,986.671
2022-07-31T01:02:50.794Z,986.638
2022-07-31T01:04:50.272Z,986.664
2022-07-31T01:06:50.469Z,986.652
2022-07-31T01:08:50.799Z,986.652
2022-07-31T01:10:50.781Z,986.635
2022-07-31T01:12:54.631Z,986.611
2022-07-31T01:14:50.674Z,986.538
2022-07-31T01:16:50.371Z,986.618
2022-07-31T01:18:50.376Z,986.607
2022-07-31T01:20:50.794Z,986.654
2022-07-31T01:22:50.524Z,986.654
2022-07-31T01:24:50.444Z,986.635
2022-07-31T01:26:50.675Z,986.637
2022-07-31T01:28:50.625Z,986.639
2022-07-31T01:31:25.862Z,986.612
2022-07-31T01:32:50.811Z,986.577
2022-07-31T01:34:50.349Z,986.604
2022-07-31T01:36:50.616Z,986.649
2022-07-31T01:38:50.367Z,986.649
2022-07-31T01:40:50.115Z,986.608
2022-07-31T01:42:50.002Z,986.633
2022-07-31T01:44:50.193Z,986.664
2022-07-31T01:46:50.314Z,986.711
2022-07-31T01:48:50.611Z,986.677
2022-07-31T01:50:50.491Z,986.682
2022-07-31T01:52:50.342Z,986.700
2022-07-31T01:54:50.244Z,986.675
2022-07-31T01:56:50.459Z,986.670
2022-07-31T01:58:50.298Z,986.669
2022-07-31T02:00:50.850Z,986.682
2022-07-31T02:02:54.715Z,986.685
2022-07-31T02:04:50.020Z,986.666
2022-07-31T02:06:50.491Z,986.654
2022-07-31T02:08:50.680Z,986.657
2022-07-31T02:10:50.636Z,986.676
2022-07-31T02:12:50.481Z,986.666
2022-07-31T02:14:51.495Z,986.668
2022-07-31T02:16:49.868Z,986.659
2022-07-31T02:18:50.832Z,986.649
2022-07-31T02:20:50.025Z,986.667
2022-07-31T02:22:49.892Z,986.617
2022-07-31T02:24:50.070Z,986.594
2022-07-31T02:26:50.035Z,986.605
2022-07-31T02:28:49.893Z,986.599
2022-07-31T02:30:50.719Z,986.595
2022-07-31T02:32:49.883Z,986.604
2022-07-31T02:34:50.201Z,986.618
2022-07-31T02:36:50.447Z,986.607
2022-07-31T02:38:50.409Z,986.607
2022-07-31T02:40:50.193Z,986.579
2022-07-31T02:42:50.148Z,986.607
2022-07-31T02:44:50.135Z,986.604
2022-07-31T02:46:50.208Z,986.638
2022-07-31T02:48:50.242Z,986.585
2022-07-31T02:50:50.684Z,986.619
2022-07-31T02:52:50.648Z,986.527
2022-07-31T02:54:50.295Z,986.556
2022-07-31T02:56:50.315Z,986.539
2022-07-31T02:58:50.371Z,986.494
2022-07-31T03:00:50.651Z,986.527
2022-07-31T03:02:50.654Z,986.478
2022-07-31T03:04:50.005Z,986.488
2022-07-31T03:06:50.337Z,986.511
2022-07-31T03:08:50.304Z,986.525
2022-07-31T03:10:50.210Z,986.489
2022-07-31T03:12:50.322Z,986.541
2022-07-31T03:14:50.229Z,986.492
2022-07-31T03:16:50.560Z,986.492
2022-07-31T03:18:50.553Z,986.515
2022-07-31T03:20:50.419Z,986.540
2022-07-31T03:22:50.336Z,986.538
2022-07-31T03:24:51.702Z,986.489
2022-07-31T03:26:49.987Z,986.549
2022-07-31T03:28:49.958Z,986.579
2022-07-31T03:30:49.836Z,986.572
2022-07-31T03:32:49.853Z,986.576
2022-07-31T03:34:50.431Z,986.589
2022-07-31T03:36:50.668Z,986.567
2022-07-31T03:38:51.117Z,986.559
2022-07-31T03:40:49.997Z,986.548
2022-07-31T03:42:50.222Z,986.575
2022-07-31T03:44:50.245Z,986.555
2022-07-31T03:46:50.400Z,986.497
2022-07-31T03:48:50.436Z,986.509
2022-07-31T03:50:50.470Z,986.492
2022-07-31T03:52:50.624Z,986.463
2022-07-31T03:54:50.501Z,986.441
2022-07-31T03:56:49.815Z,986.486
2022-07-31T03:58:53.726Z,986.512
2022-07-31T04:00:51.989Z,986.503
2022-07-31T04:02:50.092Z,986.538
2022-07-31T04:04:49.838Z,986.553
2022-07-31T04:06:49.983Z,986.545
2022-07-31T04:08:50.050Z,986.560
2022-07-31T04:10:49.915Z,986.550
2022-07-31T04:12:50.821Z,986.579
2022-07-31T04:14:50.619Z,986.617
2022-07-31T04:16:49.890Z,986.614
2022-07-31T04:18:51.358Z,986.555
2022-07-31T04:20:50.239Z,986.559
2022-07-31T04:22:51.141Z,986.555
2022-07-31T04:24:50.507Z,986.556
2022-07-31T04:26:50.020Z,986.536
2022-07-31T04:28:49.863Z,986.547
2022-07-31T04:30:49.869Z,986.573
2022-07-31T04:32:49.946Z,986.546
2022-07-31T04:34:50.365Z,986.611
2022-07-31T04:36:50.508Z,986.622
2022-07-31T04:38:50.399Z,986.600
2022-07-31T04:40:50.244Z,986.570
2022-07-31T04:42:50.174Z,986.604
2022-07-31T04:44:50.245Z,986.593
2022-07-31T04:46:50.333Z,986.562
2022-07-31T04:48:50.662Z,986.616
2022-07-31T04:50:50.573Z,986.589
2022-07-31T04:52:50.374Z,986.641
2022-07-31T04:54:50.311Z,986.627
2022-07-31T04:56:50.525Z,986.654
2022-07-31T04:58:50.544Z,986.613
2022-07-31T05:00:50.521Z,986.615
2022-07-31T05:02:50.741Z,986.652
2022-07-31T05:04:57.677Z,986.646
2022-07-31T05:06:49.935Z,986.667
2022-07-31T05:08:49.903Z,986.615
2022-07-31T05:10:50.151Z,986.652
2022-07-31T05:12:50.156Z,986.673
2022-07-31T05:14:50.083Z,986.664
2022-07-31T05:16:50.459Z,986.615
2022-07-31T05:18:50.312Z,986.624
2022-07-31T05:20:50.204Z,986.576
2022-07-31T05:22:49.959Z,986.534
2022-07-31T05:24:50.745Z,986.559
2022-07-31T05:26:49.898Z,986.578
2022-07-31T05:28:50.054Z,986.608
2022-07-31T05:30:49.928Z,986.615
2022-07-31T05:32:50.741Z,986.621
2022-07-31T05:34:51.355Z,986.639
2022-07-31T05:36:50.426Z,986.655
2022-07-31T05:38:50.315Z,986.670
2022-07-31T05:40:50.122Z,986.673
2022-07-31T05:42:50.361Z,986.683
2022-07-31T05:44:50.261Z,986.626
2022-07-31T05:48:52.752Z,986.640
2022-07-31T05:50:50.690Z,986.635
2022-07-31T05:52:49.803Z,986.630
2022-07-31T05:54:49.998Z,986.614
2022-07-31T05:56:50.426Z,986.612
2022-07-31T05:58:50.170Z,986.619
2022-07-31T06:00:50.153Z,986.618
2022-07-31T06:02:50.102Z,986.662
2022-07-31T06:04:50.620Z,986.662
2022-07-31T06:06:50.767Z,986.660
2022-07-31T06:08:50.707Z,986.660
2022-07-31T06:10:50.883Z,986.725
2022-07-31T06:12:50.127Z,986.741
2022-07-31T06:14:50.024Z,986.717
2022-07-31T06:16:50.087Z,986.771
2022-07-31T06:18:50.076Z,986.791
2022-07-31T06:20:50.006Z,986.786
2022-07-31T06:22:49.932Z,986.799
2022-07-31T06:24:50.625Z,986.765
2022-07-31T06:26:49.953Z,986.765
2022-07-31T06:28:49.912Z,986.723
2022-07-31T06:30:50.445Z,986.722
2022-07-31T06:32:50.503Z,986.754
2022-07-31T06:34:50.699Z,986.745
2022-07-31T06:36:49.938Z,986.784
2022-07-31T06:38:49.836Z,986.834
2022-07-31T06:40:49.864Z,986.797
2022-07-31T06:42:50.746Z,986.861
2022-07-31T06:44:50.725Z,986.836
2022-07-31T06:46:49.994Z,986.860
2022-07-31T06:48:50.994Z,986.848
2022-07-31T06:51:29.498Z,986.883
2022-07-31T06:52:50.801Z,986.824
2022-07-31T06:54:50.709Z,986.825
2022-07-31T06:56:50.032Z,986.810
2022-07-31T06:58:50.122Z,986.781
2022-07-31T07:00:52.149Z,986.799
2022-07-31T07:02:50.129Z,986.769
2022-07-31T07:05:07.001Z,986.745
2022-07-31T07:06:50.405Z,986.697
2022-07-31T07:08:50.114Z,986.638
2022-07-31T07:10:50.080Z,986.645
2022-07-31T07:12:49.838Z,986.647
2022-07-31T07:14:50.098Z,986.617
2022-07-31T07:16:50.251Z,986.588
2022-07-31T07:18:50.091Z,986.593
2022-07-31T07:20:50.026Z,986.650
2022-07-31T07:22:50.039Z,986.617
2022-07-31T07:24:50.322Z,986.644
2022-07-31T07:26:50.357Z,986.631
2022-07-31T07:28:50.408Z,986.585
2022-07-31T07:30:50.143Z,986.555
2022-07-31T07:32:50.042Z,986.518
2022-07-31T07:35:00.874Z,986.495
2022-07-31T07:36:50.082Z,986.519
2022-07-31T07:38:50.038Z,986.489
2022-07-31T07:40:50.149Z,986.525
2022-07-31T07:42:49.851Z,986.533
2022-07-31T07:44:49.862Z,986.515
2022-07-31T07:46:50.179Z,986.489
2022-07-31T07:48:50.216Z,986.509
2022-07-31T07:50:50.307Z,986.489
2022-07-31T07:52:50.323Z,986.465
2022-07-31T07:54:50.323Z,986.446
2022-07-31T07:56:50.610Z,986.467
2022-07-31T07:58:50.639Z,986.448
2022-07-31T08:00:50.857Z,986.468
2022-07-31T08:03:47.925Z,986.469
2022-07-31T08:04:49.946Z,986.487
2022-07-31T08:06:50.081Z,986.480
2022-07-31T08:08:49.898Z,986.473
2022-07-31T08:10:50.745Z,986.397
2022-07-31T08:12:50.643Z,986.368
2022-07-31T08:14:50.533Z,986.295
2022-07-31T08:16:49.829Z,986.331
2022-07-31T08:18:50.702Z,986.276
2022-07-31T08:20:50.650Z,986.297
2022-07-31T08:22:50.601Z,986.232
2022-07-31T08:24:50.589Z,986.242
2022-07-31T08:26:50.789Z,986.221
2022-07-31T08:28:51.480Z,986.224
2022-07-31T08:30:50.361Z,986.273
2022-07-31T08:32:50.166Z,986.280
2022-07-31T08:34:50.405Z,986.285
2022-07-31T08:36:50.418Z,986.263
2022-07-31T08:38:50.296Z,986.217
2022-07-31T08:40:50.349Z,986.230
2022-07-31T08:42:50.401Z,986.257
2022-07-31T08:44:50.289Z,986.224
2022-07-31T08:46:51.720Z,986.173
2022-07-31T08:48:50.953Z,986.163
2022-07-31T08:50:54.219Z,986.117
2022-07-31T08:52:50.287Z,986.113
2022-07-31T08:54:50.223Z,986.099
2022-07-31T08:56:50.557Z,986.085
2022-07-31T08:58:50.425Z,986.015
2022-07-31T09:00:50.517Z,986.005
2022-07-31T09:02:50.514Z,986.006
2022-07-31T09:04:53.241Z,986.046
2022-07-31T09:06:50.312Z,986.000
2022-07-31T09:08:50.324Z,985.970
2022-07-31T09:10:50.751Z,985.937
2022-07-31T09:12:50.768Z,985.912
2022-07-31T09:14:49.865Z,985.830
2022-07-31T09:16:50.150Z,985.888
2022-07-31T09:18:50.265Z,985.839
2022-07-31T09:20:50.009Z,985.819
2022-07-31T09:22:50.077Z,985.789
2022-07-31T09:24:50.004Z,985.854
2022-07-31T09:26:50.384Z,985.832
2022-07-31T09:28:50.302Z,985.808
2022-07-31T09:30:57.367Z,985.794
2022-07-31T09:32:50.303Z,985.780
2022-07-31T09:34:50.749Z,985.818
2022-07-31T09:36:49.824Z,985.751
2022-07-31T09:38:49.945Z,985.717
2022-07-31T09:40:58.199Z,985.722
2022-07-31T09:42:56.029Z,985.733
2022-07-31T09:44:49.962Z,985.726
2022-07-31T09:46:50.287Z,985.732
2022-07-31T09:48:51.447Z,985.723
2022-07-31T09:50:50.201Z,985.682
2022-07-31T09:52:50.282Z,985.665
2022-07-31T09:54:50.160Z,985.634
2022-07-31T09:56:50.576Z,985.612
2022-07-31T09:58:50.389Z,985.571
2022-07-31T10:00:50.422Z,985.538
2022-07-31T10:02:50.460Z,985.554
2022-07-31T10:04:49.827Z,985.537
2022-07-31T10:06:49.949Z,985.377
2022-07-31T10:08:50.777Z,985.368
2022-07-31T10:10:50.667Z,985.333
2022-07-31T10:12:50.418Z,985.341
2022-07-31T10:14:50.344Z,985.250
2022-07-31T10:16:50.510Z,985.245
2022-07-31T10:18:50.475Z,985.260
2022-07-31T10:20:50.372Z,985.297
2022-07-31T10:22:50.634Z,985.240
2022-07-31T10:24:50.695Z,985.252
2022-07-31T10:27:10.002Z,985.240
2022-07-31T10:28:50.330Z,985.230
2022-07-31T10:30:50.520Z,985.230
2022-07-31T10:32:50.546Z,985.208
2022-07-31T10:34:50.006Z,985.149
2022-07-31T10:36:50.266Z,985.179
2022-07-31T10:38:50.132Z,985.133
2022-07-31T10:40:49.999Z,985.133
2022-07-31T10:42:50.026Z,985.165
2022-07-31T10:44:50.025Z,985.233
2022-07-31T10:46:50.095Z,985.185
2022-07-31T10:48:50.386Z,985.161
2022-07-31T10:50:50.458Z,985.124
2022-07-31T10:52:50.651Z,985.120
2022-07-31T10:54:50.527Z,985.098
2022-07-31T10:56:50.794Z,985.052
2022-07-31T10:58:50.755Z,985.085
2022-07-31T11:00:50.663Z,985.082
2022-07-31T11:02:50.402Z,985.079
2022-07-31T11:04:49.928Z,985.068
2022-07-31T11:06:50.361Z,984.975
2022-07-31T11:08:50.272Z,984.946
2022-07-31T11:10:50.149Z,985.015
2022-07-31T11:12:50.031Z,984.998
2022-07-31T11:14:50.291Z,984.965
2022-07-31T11:16:50.643Z,984.859
2022-07-31T11:18:50.684Z,984.811
2022-07-31T11:20:50.662Z,984.803
2022-07-31T11:22:50.584Z,984.726
2022-07-31T11:24:50.531Z,984.841
2022-07-31T11:26:49.857Z,984.803
2022-07-31T11:28:50.678Z,984.831
2022-07-31T11:30:50.427Z,984.831
2022-07-31T11:32:50.599Z,984.730
2022-07-31T11:34:50.032Z,984.730
2022-07-31T11:36:51.997Z,984.673
2022-07-31T11:38:49.995Z,984.651
2022-07-31T11:40:50.005Z,984.656
2022-07-31T11:43:25.534Z,984.705
2022-07-31T11:44:50.522Z,984.659
2022-07-31T11:46:51.536Z,984.654
2022-07-31T11:48:50.647Z,984.644
2022-07-31T11:50:49.943Z,984.655
2022-07-31T11:52:49.889Z,984.547
2022-07-31T11:54:49.801Z,984.476
2022-07-31T11:56:50.177Z,984.452
2022-07-31T11:58:50.238Z,984.458
2022-07-31T12:00:50.197Z,984.347
2022-07-31T12:02:50.480Z,984.341
2022-07-31T12:04:49.971Z,984.429
2022-07-31T12:06:50.458Z,984.371
2022-07-31T12:08:50.360Z,984.471
2022-07-31T12:10:50.342Z,984.385
2022-07-31T12:12:50.222Z,984.407
2022-07-31T12:14:50.338Z,984.428
2022-07-31T12:16:50.627Z,984.390
2022-07-31T12:18:50.575Z,984.384
2022-07-31T12:20:50.471Z,984.336
2022-07-31T12:22:50.320Z,984.248
2022-07-31T12:24:52.015Z,984.318
2022-07-31T12:26:50.069Z,984.251
2022-07-31T12:28:49.993Z,984.220
2022-07-31T12:30:49.986Z,984.208
2022-07-31T12:32:49.919Z,984.207
2022-07-31T12:34:50.513Z,984.177
2022-07-31T12:36:49.897Z,984.151
2022-07-31T12:38:49.832Z,984.159
2022-07-31T12:40:50.705Z,984.169
2022-07-31T12:42:49.982Z,984.101
2022-07-31T12:44:50.053Z,984.070
2022-07-31T12:46:50.075Z,984.084
2022-07-31T12:48:50.279Z,984.096
2022-07-31T12:50:50.418Z,984.004
2022-07-31T12:52:50.218Z,984.052
2022-07-31T12:54:50.138Z,984.039
2022-07-31T12:56:50.340Z,984.010
2022-07-31T12:58:50.133Z,984.014
2022-07-31T13:00:50.399Z,983.996
2022-07-31T13:02:50.391Z,983.943
2022-07-31T13:04:49.795Z,983.807
2022-07-31T13:06:50.040Z,983.869
2022-07-31T13:08:50.009Z,983.853
2022-07-31T13:10:50.315Z,983.798
2022-07-31T13:12:50.148Z,983.824
2022-07-31T13:14:50.101Z,983.835
2022-07-31T13:16:50.426Z,983.822
2022-07-31T13:18:50.476Z,983.858
2022-07-31T13:20:50.417Z,983.860
2022-07-31T13:22:50.297Z,983.862
2022-07-31T13:24:50.186Z,983.787
2022-07-31T13:26:50.486Z,983.767
2022-07-31T13:28:51.289Z,983.791
2022-07-31T13:30:55.577Z,983.817
2022-07-31T13:32:50.477Z,983.795
2022-07-31T13:35:19.401Z,983.732
2022-07-31T13:36:50.123Z,983.718
2022-07-31T13:38:50.085Z,983.789
2022-07-31T13:40:50.005Z,983.764
2022-07-31T13:42:49.805Z,983.737
2022-07-31T13:44:50.087Z,983.794
2022-07-31T13:46:50.165Z,983.747
2022-07-31T13:48:50.224Z,983.792
2022-07-31T13:50:50.341Z,983.779
2022-07-31T13:52:50.199Z,983.791
2022-07-31T13:54:50.078Z,983.720
2022-07-31T13:56:50.228Z,983.772
2022-07-31T13:58:50.104Z,983.759
2022-07-31T14:00:49.917Z,983.731
2022-07-31T14:02:50.443Z,983.750
2022-07-31T14:04:49.868Z,983.721
2022-07-31T14:06:52.782Z,983.701
2022-07-31T14:08:51.035Z,983.678
2022-07-31T14:10:50.458Z,983.628
2022-07-31T14:12:50.686Z,983.601
2022-07-31T14:14:50.568Z,983.584
2022-07-31T14:16:50.016Z,983.603
2022-07-31T14:18:50.756Z,983.592
2022-07-31T14:20:50.751Z,983.578
2022-07-31T14:22:50.593Z,983.607
2022-07-31T14:24:51.673Z,983.561
2022-07-31T14:26:49.858Z,983.537
2022-07-31T14:28:49.999Z,983.548
2022-07-31T14:30:50.132Z,983.483
2022-07-31T14:32:50.000Z,983.533
2022-07-31T14:34:50.348Z,983.500
2022-07-31T14:36:50.603Z,983.518
2022-07-31T14:38:50.540Z,983.541
2022-07-31T14:40:50.344Z,983.565
2022-07-31T14:42:50.333Z,983.547
2022-07-31T14:44:50.067Z,983.537
2022-07-31T14:46:50.674Z,983.542
2022-07-31T14:48:50.689Z,983.580
2022-07-31T14:50:50.680Z,983.581
2022-07-31T14:52:50.627Z,983.550
2022-07-31T14:54:50.617Z,983.511
2022-07-31T14:57:01.991Z,983.475
2022-07-31T14:58:59.173Z,983.429
2022-07-31T15:00:50.188Z,983.438
2022-07-31T15:02:50.115Z,983.420
2022-07-31T15:04:50.680Z,983.420
2022-07-31T15:07:33.460Z,983.386
2022-07-31T15:08:50.057Z,983.366
2022-07-31T15:10:49.866Z,983.311
2022-07-31T15:12:49.949Z,983.340
2022-07-31T15:14:50.083Z,983.357
2022-07-31T15:16:50.234Z,983.311
2022-07-31T15:18:51.897Z,983.282
2022-07-31T15:20:50.650Z,983.246
2022-07-31T15:22:50.537Z,983.239
2022-07-31T15:24:50.774Z,983.259
2022-07-31T15:26:50.164Z,983.216
2022-07-31T15:28:50.120Z,983.199
2022-07-31T15:30:50.018Z,983.193
2022-07-31T15:32:50.128Z,983.198
2022-07-31T15:34:50.608Z,983.149
2022-07-31T15:36:50.731Z,983.096
2022-07-31T15:38:50.697Z,983.076
2022-07-31T15:40:49.809Z,983.099
2022-07-31T15:42:50.970Z,983.041
2022-07-31T15:44:50.122Z,983.054
2022-07-31T15:46:50.271Z,983.064
2022-07-31T15:48:50.451Z,982.909
2022-07-31T15:50:50.426Z,982.960
2022-07-31T15:52:50.491Z,982.927
2022-07-31T15:54:53.034Z,982.892
2022-07-31T15:56:50.239Z,982.911
2022-07-31T15:58:54.180Z,982.891
2022-07-31T16:00:52.439Z,982.879
2022-07-31T16:02:50.543Z,982.865
2022-07-31T16:04:58.609Z,982.882
2022-07-31T16:06:50.926Z,982.880
2022-07-31T16:08:50.203Z,982.808
2022-07-31T16:10:55.361Z,982.735
2022-07-31T16:12:50.384Z,982.761
2022-07-31T16:14:50.840Z,982.723
2022-07-31T16:16:57.636Z,982.683
2022-07-31T16:18:50.545Z,982.601
2022-07-31T16:20:50.479Z,982.605
2022-07-31T16:22:54.624Z,982.584
2022-07-31T16:24:50.591Z,982.561
2022-07-31T16:26:50.626Z,982.544
2022-07-31T16:28:54.571Z,982.547
2022-07-31T16:30:50.541Z,982.498
2022-07-31T16:32:50.556Z,982.482
2022-07-31T16:35:01.168Z,982.457
2022-07-31T16:36:50.091Z,982.460
2022-07-31T16:39:19.747Z,982.471
2022-07-31T16:40:53.877Z,982.471
2022-07-31T16:42:50.778Z,982.440
2022-07-31T16:44:50.662Z,982.393
2022-07-31T16:46:55.238Z,982.361
2022-07-31T16:48:50.388Z,982.381
2022-07-31T16:50:55.397Z,982.411
2022-07-31T16:52:55.720Z,982.356
2022-07-31T16:54:50.512Z,982.314
2022-07-31T16:56:50.718Z,982.238
2022-07-31T16:58:54.720Z,982.217
2022-07-31T17:00:50.679Z,982.267
2022-07-31T17:02:50.765Z,982.239
2022-07-31T17:04:54.432Z,982.226
2022-07-31T17:06:50.695Z,982.183
2022-07-31T17:08:50.760Z,982.161
2022-07-31T17:10:55.116Z,982.138
2022-07-31T17:12:50.029Z,982.130
2022-07-31T17:14:50.093Z,982.096
2022-07-31T17:16:50.268Z,982.060
2022-07-31T17:18:55.381Z,982.074
2022-07-31T17:20:50.550Z,982.031
2022-07-31T17:22:54.871Z,982.070
2022-07-31T17:24:51.865Z,982.083
2022-07-31T17:26:50.048Z,982.053
2022-07-31T17:28:49.877Z,982.075
2022-07-31T17:30:49.958Z,982.079
2022-07-31T17:32:49.833Z,982.034
2022-07-31T17:34:50.166Z,982.075
2022-07-31T17:36:50.530Z,982.062
2022-07-31T17:38:50.639Z,982.125
2022-07-31T17:40:50.560Z,982.089
2022-07-31T17:42:50.576Z,982.056
2022-07-31T17:44:55.947Z,982.056
2022-07-31T17:46:50.204Z,982.048
2022-07-31T17:48:50.186Z,982.074
2022-07-31T17:50:54.569Z,982.057
2022-07-31T17:52:50.569Z,982.057
2022-07-31T17:54:50.691Z,982.069
2022-07-31T17:56:52.598Z,982.066
2022-07-31T17:58:50.668Z,982.051
2022-07-31T18:00:50.556Z,982.080
2022-07-31T18:02:50.623Z,982.082
2022-07-31T18:04:49.989Z,982.090
2022-07-31T18:06:55.192Z,982.034
2022-07-31T18:08:50.293Z,982.097
2022-07-31T18:10:55.051Z,982.124
2022-07-31T18:12:58.603Z,982.133
2022-07-31T18:14:50.451Z,982.144
2022-07-31T18:16:49.801Z,982.135
2022-07-31T18:18:54.896Z,982.139
2022-07-31T18:20:50.260Z,982.067
2022-07-31T18:22:50.435Z,982.059
2022-07-31T18:24:50.476Z,982.074
2022-07-31T18:26:49.962Z,982.049
2022-07-31T18:28:50.077Z,982.071
2022-07-31T18:30:50.010Z,982.063
2022-07-31T18:32:50.054Z,982.066
2022-07-31T18:34:50.561Z,982.036
2022-07-31T18:36:55.389Z,982.018
2022-07-31T18:38:50.479Z,982.033
2022-07-31T18:40:50.513Z,982.022
2022-07-31T18:42:50.288Z,982.029
2022-07-31T18:44:50.350Z,982.019
2022-07-31T18:46:50.675Z,982.038
2022-07-31T18:48:57.106Z,982.006
2022-07-31T18:51:05.432Z,982.032
2022-07-31T18:52:50.423Z,982.040
2022-07-31T18:54:54.765Z,982.141
2022-07-31T18:56:52.996Z,982.116
2022-07-31T18:58:49.838Z,982.135
2022-07-31T19:00:55.842Z,982.108
2022-07-31T19:02:49.919Z,982.106
2022-07-31T19:04:50.372Z,982.086
2022-07-31T19:06:54.795Z,982.065
2022-07-31T19:08:50.027Z,982.105
2022-07-31T19:10:50.071Z,982.116
2022-07-31T19:12:50.047Z,982.129
2022-07-31T19:14:49.942Z,982.133
2022-07-31T19:16:50.170Z,982.133
2022-07-31T19:18:50.813Z,982.127
2022-07-31T19:21:19.243Z,982.142
2022-07-31T19:22:50.792Z,982.136
2022-07-31T19:24:50.743Z,982.091
2022-07-31T19:26:50.122Z,982.094
2022-07-31T19:28:49.962Z,982.052
2022-07-31T19:30:50.121Z,982.027
2022-07-31T19:32:50.083Z,982.055
2022-07-31T19:34:52.679Z,982.073
2022-07-31T19:36:50.672Z,982.081
2022-07-31T19:38:49.999Z,982.082
2022-07-31T19:40:49.897Z,982.040
2022-07-31T19:42:49.979Z,982.114
2022-07-31T19:44:49.866Z,982.092
2022-07-31T19:46:50.069Z,982.102
2022-07-31T19:48:50.461Z,982.147
2022-07-31T19:50:54.145Z,982.152
2022-07-31T19:52:49.983Z,982.181
2022-07-31T19:54:50.014Z,982.209
2022-07-31T19:56:50.206Z,982.225
2022-07-31T19:58:50.263Z,982.223
2022-07-31T20:00:50.368Z,982.204
2022-07-31T20:02:50.550Z,982.198
2022-07-31T20:04:50.003Z,982.156
2022-07-31T20:06:50.576Z,982.184
2022-07-31T20:08:50.504Z,982.150
2022-07-31T20:10:51.813Z,982.136
2022-07-31T20:12:49.868Z,982.135
2022-07-31T20:14:49.985Z,982.123
2022-07-31T20:16:50.194Z,982.099
2022-07-31T20:18:50.211Z,982.104
2022-07-31T20:20:57.094Z,982.097
2022-07-31T20:22:50.406Z,982.108
2022-07-31T20:24:50.239Z,982.099
2022-07-31T20:26:50.460Z,982.096
2022-07-31T20:28:51.692Z,982.102
2022-07-31T20:30:50.778Z,982.075
2022-07-31T20:32:51.746Z,982.078
2022-07-31T20:34:49.929Z,982.066
2022-07-31T20:36:49.909Z,982.097
2022-07-31T20:38:49.909Z,1151.431
2022-07-31T20:40:56.190Z,1151.431
2022-07-31T20:42:50.114Z,982.116
2022-07-31T20:44:50.065Z,982.137
2022-07-31T20:46:50.731Z,982.149
2022-07-31T20:48:50.503Z,982.113
2022-07-31T20:50:50.744Z,1151.431
2022-07-31T20:52:50.575Z,1151.431
2022-07-31T20:54:50.427Z,1151.431
2022-07-31T20:56:50.338Z,1151.431
2022-07-31T20:58:52.424Z,1151.431
2022-07-31T21:00:50.234Z,1151.431
2022-07-31T21:02:52.119Z,1151.431
2022-07-31T21:04:50.391Z,1151.431
2022-07-31T21:06:50.238Z,1151.431
2022-07-31T21:08:49.812Z,1151.431
2022-07-31T21:10:50.624Z,1151.431
2022-07-31T21:12:50.168Z,1151.431
2022-07-31T21:14:49.981Z,1151.431
2022-07-31T21:16:51.372Z,1151.431
2022-07-31T21:18:50.073Z,1151.431
2022-07-31T21:20:54.057Z,1151.431
2022-07-31T21:22:50.741Z,1151.431
2022-07-31T21:24:50.674Z,1151.431
2022-07-31T21:26:52.569Z,1151.431
2022-07-31T21:28:50.585Z,1151.431
2022-07-31T21:30:50.432Z,1151.431
2022-07-31T21:32:50.299Z,1151.431
2022-07-31T21:34:50.760Z,1151.431
2022-07-31T21:36:50.729Z,1151.431
2022-07-31T21:38:50.421Z,1151.431
2022-07-31T21:40:50.045Z,1151.431
2022-07-31T21:42:57.499Z,1151.431
2022-07-31T21:44:50.572Z,1151.431
2022-07-31T21:46:52.182Z,1151.431
2022-07-31T21:48:50.184Z,981.972
2022-07-31T21:50:50.386Z,1151.431
2022-07-31T21:52:50.308Z,1151.431
2022-07-31T21:54:49.881Z,1151.431
2022-07-31T21:56:50.039Z,1151.431
2022-07-31T21:58:50.696Z,1151.431
2022-07-31T22:00:50.508Z,1151.431
2022-07-31T22:02:50.107Z,1151.431
2022-07-31T22:04:50.113Z,1151.431
2022-07-31T22:06:50.174Z,1151.431
2022-07-31T22:08:49.882Z,1151.431
2022-07-31T22:10:50.590Z,1151.431
2022-07-31T22:12:50.494Z,1151.431
2022-07-31T22:14:50.059Z,1151.431
2022-07-31T22:16:51.027Z,1151.431
2022-07-31T22:18:50.626Z,1151.431
2022-07-31T22:20:50.195Z,1151.431
2022-07-31T22:22:50.012Z,1151.431
2022-07-31T22:24:50.670Z,1151.431
2022-07-31T22:26:50.753Z,1151.431
2022-07-31T22:28:50.352Z,1151.431
2022-07-31T22:30:49.918Z,1151.431
2022-07-31T22:32:53.803Z,1151.431
2022-07-31T22:34:49.925Z,1151.431
2022-07-31T22:36:49.932Z,1151.431
2022-07-31T22:38:50.728Z,1151.431
2022-07-31T22:40:50.215Z,1151.431
2022-07-31T22:42:58.550Z,1151.431
2022-07-31T22:44:50.049Z,1151.431
2022-07-31T22:46:50.164Z,1151.431
2022-07-31T22:48:50.905Z,1151.431
2022-07-31T22:50:50.714Z,1151.431
2022-07-31T22:52:50.367Z,1151.431
2022-07-31T22:54:49.981Z,1151.431
2022-07-31T22:56:50.150Z,1151.431
2022-07-31T22:58:50.734Z,1151.431
2022-07-31T23:00:50.720Z,1151.431
2022-07-31T23:02:50.598Z,1151.431
2022-07-31T23:04:49.839Z,1151.431
2022-07-31T23:06:49.806Z,1151.431
2022-07-31T23:08:55.372Z,1151.431
2022-07-31T23:10:50.021Z,1151.431
2022-07-31T23:12:49.957Z,1151.431
2022-07-31T23:14:50.439Z,1151.431
2022-07-31T23:16:50.450Z,1151.431
2022-07-31T23:18:50.210Z,1151.431
2022-07-31T23:20:50.758Z,1151.431
2022-07-31T23:22:50.357Z,1151.431
2022-07-31T23:24:50.044Z,1151.431
2022-07-31T23:26:49.800Z,1151.431
2022-07-31T23:28:50.605Z,1151.431
2022-07-31T23:30:51.983Z,1151.431
2022-07-31T23:32:50.672Z,1151.431
2022-07-31T23:34:50.684Z,1151.431
2022-07-31T23:36:49.827Z,1151.431
2022-07-31T23:38:50.601Z,1151.431
2022-07-31T23:40:50.311Z,1151.431
2022-07-31T23:42:49.869Z,1151.431
2022-07-31T23:44:51.477Z,1151.431
2022-07-31T23:46:50.572Z,1151.431
2022-07-31T23:48:50.908Z,1151.431
2022-07-31T23:50:50.548Z,1151.431
2022-07-31T23:52:50.329Z,1151.431
2022-07-31T23:54:50.014Z,1151.431
2022-07-31T23:56:49.926Z,1151.431
2022-07-31T23:58:50.661Z,1151.431
